createdAt,value
2023-03-17T00:02:05.444Z,57.92
2023-03-17T00:04:34.787Z,59.88
2023-03-17T00:07:11.005Z,56.22
2023-03-17T00:09:39.651Z,55.83
2023-03-17T00:12:12.735Z,57.47
2023-03-17T00:14:42.717Z,53.08
2023-03-17T00:17:13.295Z,51.60
2023-03-17T00:19:43.561Z,51.83
2023-03-17T00:22:19.429Z,51.35
2023-03-17T00:24:48.712Z,51.85
2023-03-17T00:27:18.893Z,53.67
2023-03-17T00:29:47.932Z,51.38
2023-03-17T00:32:28.305Z,49.60
2023-03-17T00:34:57.495Z,50.03
2023-03-17T00:37:27.194Z,47.75
2023-03-17T00:39:55.822Z,47.40
2023-03-17T00:42:25.562Z,47.22
2023-03-17T00:44:54.810Z,46.30
2023-03-17T00:47:24.738Z,47.47
2023-03-17T00:49:54.966Z,46.00
2023-03-17T00:52:24.594Z,45.97
2023-03-17T00:54:54.997Z,44.15
2023-03-17T00:57:24.693Z,44.55
2023-03-17T00:59:54.074Z,45.15
2023-03-17T01:02:26.049Z,49.97
2023-03-17T01:05:05.810Z,44.70
2023-03-17T01:07:36.025Z,44.28
2023-03-17T01:10:05.589Z,45.75
2023-03-17T01:12:36.197Z,48.97
2023-03-17T01:15:05.045Z,44.25
2023-03-17T01:17:37.273Z,43.50
2023-03-17T01:20:07.609Z,42.15
2023-03-17T01:22:36.298Z,43.35
2023-03-17T01:25:05.916Z,45.22
2023-03-17T01:27:37.506Z,42.97
2023-03-17T01:30:07.845Z,42.47
2023-03-17T01:32:38.830Z,42.63
2023-03-17T01:35:11.033Z,44.03
2023-03-17T01:37:40.204Z,41.88
2023-03-17T01:40:11.387Z,43.72
2023-03-17T01:42:40.700Z,42.60
2023-03-17T01:45:50.077Z,40.13
2023-03-17T01:48:20.095Z,39.97
2023-03-17T01:50:49.863Z,39.03
2023-03-17T01:53:19.298Z,38.95
2023-03-17T01:55:52.889Z,38.20
2023-03-17T01:58:25.080Z,36.92
2023-03-17T02:00:53.773Z,34.15
2023-03-17T02:03:23.962Z,35.13
2023-03-17T02:05:53.807Z,34.72
2023-03-17T02:08:27.284Z,33.83
2023-03-17T02:10:58.241Z,34.08
2023-03-17T02:13:28.008Z,33.95
2023-03-17T02:15:57.957Z,33.58
2023-03-17T02:18:26.848Z,33.60
2023-03-17T02:21:03.474Z,33.65
2023-03-17T02:23:32.729Z,32.15
2023-03-17T02:26:01.573Z,32.60
2023-03-17T02:28:32.884Z,32.05
2023-03-17T02:31:01.731Z,31.25
2023-03-17T02:33:30.583Z,31.50
2023-03-17T02:36:00.666Z,30.70
2023-03-17T02:38:30.101Z,32.05
2023-03-17T02:40:59.153Z,31.27
2023-03-17T02:54:29.572Z,29.33
2023-03-17T02:57:09.891Z,30.27
2023-03-17T02:59:38.863Z,30.08
2023-03-17T03:02:07.971Z,33.40
2023-03-17T03:07:21.794Z,31.25
2023-03-17T03:09:53.576Z,35.85
2023-03-17T03:12:27.509Z,33.20
2023-03-17T03:15:07.990Z,33.65
2023-03-17T03:17:41.738Z,31.65
2023-03-17T03:20:24.464Z,32.75
2023-03-17T03:22:53.667Z,33.13
2023-03-17T03:25:22.978Z,34.38
2023-03-17T03:27:59.486Z,32.35
2023-03-17T03:30:29.144Z,34.33
2023-03-17T03:32:59.647Z,32.38
2023-03-17T03:38:13.935Z,33.40
2023-03-17T03:40:48.634Z,32.47
2023-03-17T03:43:26.201Z,32.67
2023-03-17T03:45:57.699Z,33.45
2023-03-17T03:48:40.249Z,32.72
2023-03-17T03:51:25.777Z,33.20
2023-03-17T03:54:01.644Z,33.72
2023-03-17T03:56:37.103Z,34.30
2023-03-17T04:01:55.990Z,32.83
2023-03-17T04:04:27.429Z,35.95
2023-03-17T04:06:58.560Z,34.83
2023-03-17T04:09:29.862Z,32.67
2023-03-17T04:12:04.062Z,34.85
2023-03-17T04:14:35.957Z,34.53
2023-03-17T04:17:06.669Z,31.87
2023-03-17T04:19:35.420Z,33.47
2023-03-17T04:22:16.951Z,35.33
2023-03-17T04:24:46.311Z,32.75
2023-03-17T04:27:19.932Z,34.40
2023-03-17T04:29:51.490Z,33.25
2023-03-17T04:32:21.764Z,35.67
2023-03-17T04:34:50.457Z,36.33
2023-03-17T04:37:21.679Z,34.03
2023-03-17T04:39:54.054Z,35.22
2023-03-17T04:42:22.847Z,33.58
2023-03-17T04:44:59.818Z,32.95
2023-03-17T04:47:29.749Z,33.67
2023-03-17T04:49:59.807Z,34.92
2023-03-17T04:52:39.285Z,35.67
2023-03-17T04:55:28.685Z,35.22
2023-03-17T04:58:00.029Z,36.38
2023-03-17T05:00:38.677Z,35.65
2023-03-17T05:03:20.189Z,34.97
2023-03-17T05:06:07.006Z,35.72
2023-03-17T05:08:41.308Z,35.08
2023-03-17T05:11:11.772Z,34.95
2023-03-17T05:13:42.077Z,33.97
2023-03-17T05:16:14.289Z,37.35
2023-03-17T05:18:57.830Z,34.65
2023-03-17T05:21:36.899Z,34.00
2023-03-17T05:24:07.153Z,35.63
2023-03-17T05:26:42.171Z,36.85
2023-03-17T05:29:18.851Z,36.40
2023-03-17T05:31:52.324Z,34.03
2023-03-17T05:34:23.394Z,32.47
2023-03-17T05:36:56.046Z,33.47
2023-03-17T05:39:26.758Z,33.13
2023-03-17T05:42:05.250Z,33.05
2023-03-17T05:44:37.026Z,33.33
2023-03-17T05:47:08.271Z,32.83
2023-03-17T05:49:41.646Z,32.72
2023-03-17T05:52:10.570Z,33.30
2023-03-17T05:54:50.109Z,33.20
2023-03-17T05:57:32.948Z,34.58
2023-03-17T06:02:32.298Z,32.63
2023-03-17T06:05:02.627Z,32.90
2023-03-17T06:07:51.590Z,31.02
2023-03-17T06:10:22.456Z,32.00
2023-03-17T06:12:52.251Z,34.08
2023-03-17T06:18:18.750Z,31.65
2023-03-17T06:23:37.341Z,31.90
2023-03-17T06:28:50.921Z,33.25
2023-03-17T06:31:20.308Z,33.17
2023-03-17T06:36:44.034Z,30.83
2023-03-17T06:39:30.671Z,32.13
2023-03-17T06:42:09.176Z,31.63
2023-03-17T06:44:38.964Z,32.22
2023-03-17T06:52:50.952Z,30.55
2023-03-17T06:55:22.914Z,32.25
2023-03-17T06:58:02.414Z,30.73
2023-03-17T07:00:37.415Z,31.90
2023-03-17T07:03:07.500Z,32.10
2023-03-17T07:05:36.440Z,32.88
2023-03-17T07:08:08.598Z,32.58
2023-03-17T07:10:39.568Z,33.15
2023-03-17T07:13:09.574Z,31.92
2023-03-17T07:15:39.499Z,30.98
2023-03-17T07:18:14.807Z,32.05
2023-03-17T07:20:48.449Z,31.70
2023-03-17T07:23:30.879Z,31.92
2023-03-17T07:26:02.096Z,32.20
2023-03-17T07:28:32.732Z,35.67
2023-03-17T07:31:08.554Z,32.15
2023-03-17T07:33:38.485Z,33.65
2023-03-17T07:36:08.452Z,33.47
2023-03-17T07:38:48.565Z,33.58
2023-03-17T07:41:19.654Z,35.78
2023-03-17T07:43:49.890Z,35.08
2023-03-17T07:49:06.520Z,35.13
2023-03-17T07:51:44.443Z,35.72
2023-03-17T07:54:25.694Z,33.25
2023-03-17T07:56:57.572Z,34.88
2023-03-17T07:59:29.055Z,35.20
2023-03-17T08:04:44.495Z,35.38
2023-03-17T08:07:14.993Z,33.05
2023-03-17T08:09:44.306Z,34.00
2023-03-17T08:12:13.344Z,33.80
2023-03-17T08:17:28.507Z,34.53
2023-03-17T08:19:59.699Z,34.45
2023-03-17T08:22:33.715Z,34.20
2023-03-17T08:25:15.834Z,33.55
2023-03-17T08:27:45.505Z,32.70
2023-03-17T08:30:14.818Z,33.55
2023-03-17T08:32:44.218Z,31.92
2023-03-17T08:35:30.100Z,33.72
2023-03-17T08:37:59.175Z,32.13
2023-03-17T08:40:32.634Z,32.30
2023-03-17T08:43:06.574Z,33.25
2023-03-17T08:48:26.224Z,31.80
2023-03-17T08:50:55.298Z,33.33
2023-03-17T08:56:10.227Z,33.08
2023-03-17T08:58:43.916Z,32.67
2023-03-17T09:03:58.852Z,33.17
2023-03-17T09:06:31.807Z,34.28
2023-03-17T09:09:02.827Z,32.60
2023-03-17T09:14:23.777Z,32.85
2023-03-17T09:19:57.066Z,34.75
2023-03-17T09:22:28.444Z,33.47
2023-03-17T09:27:37.968Z,33.03
2023-03-17T09:30:08.541Z,32.88
2023-03-17T09:32:37.143Z,34.20
2023-03-17T09:35:06.253Z,33.42
2023-03-17T09:37:35.385Z,34.08
2023-03-17T09:40:06.536Z,34.03
2023-03-17T09:43:05.758Z,32.83
2023-03-17T09:45:55.326Z,34.42
2023-03-17T09:48:44.312Z,33.13
2023-03-17T09:51:18.916Z,34.15
2023-03-17T09:54:12.818Z,34.40
2023-03-17T09:56:47.874Z,33.80
2023-03-17T09:59:42.225Z,34.72
2023-03-17T10:02:25.261Z,34.65
2023-03-17T10:10:25.118Z,34.58
2023-03-17T10:13:25.851Z,33.95
2023-03-17T10:18:55.473Z,35.45
2023-03-17T10:21:33.199Z,35.20
2023-03-17T10:24:05.511Z,36.00
2023-03-17T10:26:43.685Z,34.25
2023-03-17T10:29:21.252Z,34.05
2023-03-17T10:32:03.350Z,36.33
2023-03-17T10:34:43.446Z,33.55
2023-03-17T10:37:23.564Z,32.50
2023-03-17T10:45:56.313Z,34.63
2023-03-17T10:48:31.017Z,33.45
2023-03-17T10:51:11.274Z,33.97
2023-03-17T10:53:44.978Z,33.60
2023-03-17T10:56:43.083Z,34.75
2023-03-17T11:04:49.512Z,36.67
2023-03-17T11:07:24.160Z,35.60
2023-03-17T11:09:53.620Z,37.20
2023-03-17T11:12:31.058Z,36.13
2023-03-17T11:15:21.777Z,36.47
2023-03-17T11:18:02.478Z,38.40
2023-03-17T11:21:03.888Z,38.70
2023-03-17T11:23:53.854Z,39.88
2023-03-17T11:27:05.642Z,44.58
2023-03-17T11:29:47.417Z,39.83
2023-03-17T11:32:44.716Z,39.83
2023-03-17T11:35:46.973Z,38.83
2023-03-17T11:38:42.505Z,38.35
2023-03-17T11:44:26.398Z,39.17
2023-03-17T11:49:42.354Z,44.88
2023-03-17T11:52:35.635Z,43.22
2023-03-17T11:55:27.668Z,40.90
2023-03-17T11:58:16.847Z,40.08
2023-03-17T12:03:47.970Z,38.85
2023-03-17T12:06:33.279Z,40.75
2023-03-17T12:09:19.909Z,40.63
2023-03-17T12:11:54.245Z,40.22
2023-03-17T12:17:55.595Z,38.17
2023-03-17T12:23:49.825Z,39.67
2023-03-17T12:26:26.576Z,41.38
2023-03-17T12:29:10.733Z,41.92
2023-03-17T12:31:50.364Z,40.08
2023-03-17T12:40:43.981Z,39.42
2023-03-17T12:43:42.799Z,38.10
2023-03-17T12:46:44.311Z,38.92
2023-03-17T12:49:29.783Z,38.85
2023-03-17T12:58:06.915Z,40.33
2023-03-17T13:00:53.225Z,40.13
2023-03-17T13:03:32.533Z,39.13
2023-03-17T13:06:14.607Z,37.95
2023-03-17T13:08:45.143Z,38.67
2023-03-17T13:14:54.466Z,38.72
2023-03-17T13:17:25.691Z,37.92
2023-03-17T13:23:16.039Z,39.63
2023-03-17T13:28:44.594Z,40.67
2023-03-17T13:31:36.462Z,40.83
2023-03-17T13:43:25.230Z,44.10
2023-03-17T13:46:27.889Z,43.75
2023-03-17T13:52:00.242Z,42.20
2023-03-17T13:54:31.940Z,43.75
2023-03-17T14:09:01.408Z,45.17
2023-03-17T14:11:40.420Z,44.47
2023-03-17T14:14:34.134Z,47.45
2023-03-17T14:20:29.102Z,47.70
2023-03-17T14:28:50.116Z,47.42
2023-03-17T14:31:31.075Z,46.88
2023-03-17T14:34:07.762Z,46.83
2023-03-17T14:39:28.419Z,46.05
2023-03-17T14:42:06.528Z,47.40
2023-03-17T14:44:47.722Z,48.80
2023-03-17T14:55:53.871Z,48.25
2023-03-17T14:58:28.747Z,47.08
2023-03-17T15:01:20.685Z,48.10
2023-03-17T15:09:47.359Z,48.38
2023-03-17T15:20:45.222Z,48.00
2023-03-17T15:23:25.823Z,47.10
2023-03-17T15:26:03.502Z,48.60
2023-03-17T15:28:35.734Z,46.55
2023-03-17T15:31:41.113Z,49.00
2023-03-17T15:37:10.356Z,47.70
2023-03-17T15:39:55.882Z,48.15
2023-03-17T15:45:15.420Z,46.55
2023-03-17T15:47:47.937Z,48.10
2023-03-17T15:50:25.063Z,46.63
2023-03-17T15:52:56.701Z,47.65
2023-03-17T15:55:30.352Z,49.15
2023-03-17T15:58:00.191Z,48.00
2023-03-17T16:00:30.676Z,48.30
2023-03-17T16:03:03.843Z,49.28
2023-03-17T16:05:34.799Z,48.08
2023-03-17T16:08:03.398Z,46.75
2023-03-17T16:10:34.047Z,50.05
2023-03-17T16:13:02.824Z,50.55
2023-03-17T16:15:36.481Z,49.85
2023-03-17T16:18:09.348Z,48.97
2023-03-17T16:23:29.823Z,48.75
2023-03-17T16:26:17.014Z,49.38
2023-03-17T16:28:51.938Z,50.15
2023-03-17T16:31:31.186Z,48.55
2023-03-17T16:33:59.999Z,50.60
2023-03-17T16:36:28.917Z,49.42
2023-03-17T16:38:57.682Z,50.60
2023-03-17T16:41:29.454Z,49.30
2023-03-17T16:46:53.090Z,49.22
2023-03-17T16:49:25.505Z,50.85
2023-03-17T16:54:41.647Z,50.70
2023-03-17T16:57:15.043Z,52.33
2023-03-17T17:03:38.570Z,51.25
2023-03-17T17:08:36.645Z,49.38
2023-03-17T17:11:05.515Z,50.92
2023-03-17T17:13:34.177Z,50.88
2023-03-17T17:16:02.869Z,50.35
2023-03-17T17:18:31.404Z,50.35
2023-03-17T17:21:01.191Z,47.53
2023-03-17T17:23:29.985Z,48.47
2023-03-17T17:26:12.290Z,49.33
2023-03-17T17:28:43.830Z,48.85
2023-03-17T17:34:07.892Z,47.65
2023-03-17T17:36:49.812Z,48.97
2023-03-17T17:39:20.227Z,48.60
2023-03-17T17:44:41.743Z,49.67
2023-03-17T17:49:59.709Z,49.65
2023-03-17T17:52:28.621Z,49.03
2023-03-17T17:55:10.522Z,48.80
2023-03-17T18:00:21.587Z,51.05
2023-03-17T18:02:57.670Z,48.78
2023-03-17T18:05:34.636Z,50.30
2023-03-17T18:08:07.056Z,49.78
2023-03-17T18:10:36.902Z,49.97
2023-03-17T18:13:07.264Z,50.95
2023-03-17T18:18:22.660Z,48.70
2023-03-17T18:20:57.015Z,49.83
2023-03-17T18:23:26.404Z,49.90
2023-03-17T18:26:17.269Z,50.80
2023-03-17T18:28:47.812Z,48.95
2023-03-17T18:31:30.300Z,50.22
2023-03-17T18:36:35.834Z,50.13
2023-03-17T18:41:50.514Z,50.13
2023-03-17T18:49:47.472Z,52.05
2023-03-17T18:52:25.970Z,50.20
2023-03-17T18:55:02.894Z,51.95
2023-03-17T19:00:36.232Z,51.38
2023-03-17T19:03:21.403Z,50.05
2023-03-17T19:08:20.618Z,50.55
2023-03-17T19:10:49.537Z,52.28
2023-03-17T19:13:18.385Z,51.75
2023-03-17T19:15:47.796Z,51.63
2023-03-17T19:18:16.984Z,50.05
2023-03-17T19:20:45.516Z,53.00
2023-03-17T19:23:14.479Z,52.22
2023-03-17T19:25:43.125Z,51.92
2023-03-17T19:28:11.621Z,54.85
2023-03-17T19:30:40.358Z,51.92
2023-03-17T19:33:09.543Z,55.10
2023-03-17T19:35:38.118Z,51.83
2023-03-17T19:38:09.118Z,53.40
2023-03-17T19:40:38.507Z,54.60
2023-03-17T19:43:07.699Z,55.45
2023-03-17T19:45:36.285Z,54.22
2023-03-17T19:48:04.879Z,54.75
2023-03-17T19:50:33.849Z,54.90
2023-03-17T19:53:02.551Z,53.28
2023-03-17T19:55:31.456Z,56.97
2023-03-17T19:58:00.330Z,54.22
2023-03-17T20:00:29.345Z,53.95
2023-03-17T20:02:58.192Z,54.15
2023-03-17T20:05:27.121Z,55.97
2023-03-17T20:07:55.768Z,55.53
2023-03-17T20:10:24.549Z,56.17
2023-03-17T20:12:53.250Z,55.00
2023-03-17T20:15:22.382Z,55.83
2023-03-17T20:17:51.076Z,55.60
2023-03-17T20:20:20.153Z,55.78
2023-03-17T20:22:49.015Z,55.42
2023-03-17T20:25:32.451Z,54.55
2023-03-17T20:28:02.414Z,53.38
2023-03-17T20:30:31.433Z,56.03
2023-03-17T20:35:44.988Z,54.88
2023-03-17T20:38:14.620Z,55.20
2023-03-17T20:40:46.189Z,56.47
2023-03-17T20:46:00.361Z,54.28
2023-03-17T20:48:29.025Z,55.45
2023-03-17T20:50:59.197Z,55.30
2023-03-17T20:53:29.005Z,59.05
2023-03-17T20:55:57.757Z,56.60
2023-03-17T20:58:27.651Z,56.42
2023-03-17T21:00:57.893Z,55.45
2023-03-17T21:03:26.664Z,56.65
2023-03-17T21:05:55.256Z,56.53
2023-03-17T21:08:37.519Z,56.47
2023-03-17T21:11:11.059Z,56.47
2023-03-17T21:13:39.741Z,56.53
2023-03-17T21:16:08.410Z,54.58
2023-03-17T21:18:37.212Z,57.67
2023-03-17T21:21:06.125Z,56.38
2023-03-17T21:26:20.480Z,57.25
2023-03-17T21:28:56.449Z,57.35
2023-03-17T21:31:26.375Z,56.83
2023-03-17T21:33:57.998Z,57.88
2023-03-17T21:39:08.559Z,58.10
2023-03-17T21:41:39.682Z,60.72
2023-03-17T21:44:11.889Z,58.30
2023-03-17T21:46:43.034Z,58.28
2023-03-17T21:49:22.119Z,58.83
2023-03-17T21:51:51.355Z,59.35
2023-03-17T21:57:09.032Z,57.90
2023-03-17T21:59:41.346Z,58.42
2023-03-17T22:05:02.240Z,61.60
2023-03-17T22:07:31.207Z,60.30
2023-03-17T22:10:02.735Z,61.17
2023-03-17T22:12:34.667Z,58.72
2023-03-17T22:17:55.009Z,63.45
2023-03-17T22:20:30.814Z,62.50
2023-03-17T22:23:15.678Z,62.45
2023-03-17T22:25:47.230Z,62.75
2023-03-17T22:28:17.744Z,62.83
2023-03-17T22:30:55.279Z,61.80
2023-03-17T22:33:37.923Z,63.13
2023-03-17T22:41:37.243Z,61.05
2023-03-17T22:44:13.075Z,57.67
2023-03-17T22:46:49.419Z,58.22
2023-03-17T22:49:25.479Z,59.58
2023-03-17T22:52:08.821Z,58.97
2023-03-17T22:57:26.190Z,59.25
2023-03-17T22:59:58.205Z,58.00
2023-03-17T23:02:29.423Z,59.42
2023-03-17T23:10:30.396Z,64.07
2023-03-17T23:13:12.495Z,60.70
2023-03-17T23:15:41.349Z,66.68
2023-03-17T23:21:06.481Z,71.63
2023-03-17T23:23:37.570Z,67.97
2023-03-17T23:26:19.481Z,70.32
2023-03-17T23:31:38.110Z,71.50
2023-03-17T23:34:12.126Z,77.68
2023-03-17T23:36:48.042Z,75.60
2023-03-17T23:42:13.020Z,78.17
2023-03-17T23:44:43.415Z,81.10
2023-03-17T23:47:20.245Z,79.32
2023-03-17T23:49:50.604Z,80.35
2023-03-17T23:52:20.628Z,82.30
2023-03-17T23:54:54.899Z,86.45
2023-03-17T23:57:37.457Z,84.68
